Etusivu
METAR-TAF:

METAR-TAF

Lentoasemat :

Hobbs, New Mexico, Yhdysvallat

Leveyspiiri: 32-41N, Pituuspiiri: 103-13W, korkeus merenpinnasta: 1115 m

Tämänhetkinen sää

Tämä raportti tehtiin 44 minuuttia sitten, kello 14.50 UTC
Tuuli 16 kn pohjoisen/luoteesta
Lämpötila 27°C
Kosteus 7%
Ilmanpaine 1013 hPa
Näkyvyys: 16.1 km
selkeää

METAR: KHOB 241450Z 33016KT 10SM CLR 27/M11 A2992

Aika: 09:34 (15:34 UTC)

Sääennuste

Tämä raportti tehtiin 1 tunti ja 5 minuuttia sitten, kello 14.29 UTC
Ennuste voimassa 24. päivästä klo 14 UTC - 25. päivään klo 12 UTC
Tuuli 10 kn lännestä
Näkyvyys: 10 km
selkeää
From 24. päivästä klo 1500 UTC
Tuuli 11 kn pohjoisesta
Näkyvyys: 10 km
selkeää
From 24. päivästä klo 2000 UTC
Tuuli 8 kn lännestä/lounaasta
Näkyvyys: 10 km
selkeää
From 25. päivästä klo 0200 UTC
Tuuli 5 kn kaakosta
Näkyvyys: 10 km
selkeää

TAF: KHOB 241429Z 2414/2512 26010KT P6SM SKC FM241500 36011KT P6SM SKC FM242000 24008KT P6SM SKC FM250200 14005KT P6SM SKC

Säähavainnot ja -ennusteet yli 4000 lentoasemalta (METAR- ja TAF-raportit).

Käytössä olevat sääasemat on merkitty karttaan keltaisilla ja punaisilla pisteillä.

Aseta hiiri pisteen päälle nähdäksesi sääaseman nimen.

Klikkaa sitten nähdäksesi säähavainnot ja -ennusteet.

Kartan vaihtaminen: klikkaa mustalla rastilla varustettuja vihreitä pisteitä, niin voit zoomata sisään; viivalla varustettua vihreää pistettä, niin voit zoomata ulos tai vihreitä nuolia, niin pääset viereisille kartoille.


METAR-TAF: